Главная страница
METAR-TAF:

METAR-TAF

Аэропорты :

Закаталы, Азербайджан

Парзиван

широта: 41-33-44N, долгота: 46-40-02E, высота над уровнем моря: 330 м

Текущие метеонаблюдения

Эта сводка был подготовлена 37 минут назад, в 19:00 UTC
Ветер 3 Узел переменных направлений
Температура 7°C
Влажность 87%
Давление 1019 hPa
Видимость: 8000 м
Рассеянная облачность на высоте 10000 фута

METAR: UBBY 191900Z VRB03KT 8000 BKN100 07/05 Q1019 R33/CLRD// NOSIG RMK MT OP

Время: 23:37 (19:37 UTC)

Прогноз

Эта сводка был подготовлена 2 часа и 37 минут назад, в 17:00 UTC
Прогноз действительный с 19-го 18 UTC до 20-го 03 UTC
Ветер 2 Узел переменных направлений
Видимость: 6000 м
Отдельные облака на высоте 4000 фута
Рассеянная облачность на высоте 7000 фута
временами
С 19-го 18 UTC до 19-го 22 UTC
Видимость: 3000 м
Рассеянная облачность на высоте 1000 фута
дымка

TAF: UBBY 191700Z 1918/2003 VRB02KT 6000 SCT040 BKN070 TEMPO 1918/1922 3000 BR BKN010

Метеонаблюдения и прогнозы для более 4000 аэропортов (сводки METAR и TAF).

Имеющиеся станции представлены на карте желтыми и красными точками.

Чтобы увидеть название станции, наведите на нее мышь.

Затем щелкните, чтобы увидеть метеонаблюдения и метеопрогнозы.

Управление картой: чтобы увеличить масштаб, щелкните зеленые кнопки с черным крестиком; чтобы уменьшить масштаб, щелкните зеленую кнопку с тире; для просмотра соседних карт щелкайте зеленые стрелки.


METAR-TAF: